sensor_id;sensor_type;location;lat;lon;timestamp;temperature;humidity
2955;DHT22;1487;51.470;6.938;2022-09-09T00:00:25;14.60;99.90
2955;DHT22;1487;51.470;6.938;2022-09-09T00:02:57;14.60;99.90
2955;DHT22;1487;51.470;6.938;2022-09-09T00:05:31;14.60;99.90
2955;DHT22;1487;51.470;6.938;2022-09-09T00:08:04;14.60;99.90
2955;DHT22;1487;51.470;6.938;2022-09-09T00:10:34;14.60;99.90
2955;DHT22;1487;51.470;6.938;2022-09-09T00:13:13;14.60;99.90
2955;DHT22;1487;51.470;6.938;2022-09-09T00:15:49;14.60;99.90
2955;DHT22;1487;51.470;6.938;2022-09-09T00:18:25;14.60;99.90
2955;DHT22;1487;51.470;6.938;2022-09-09T00:20:57;14.60;99.90
2955;DHT22;1487;51.470;6.938;2022-09-09T00:23:28;14.70;99.90
2955;DHT22;1487;51.470;6.938;2022-09-09T00:26:02;14.60;99.90
2955;DHT22;1487;51.470;6.938;2022-09-09T00:28:32;14.60;99.90
2955;DHT22;1487;51.470;6.938;2022-09-09T00:31:07;14.60;99.90
2955;DHT22;1487;51.470;6.938;2022-09-09T00:33:36;14.60;99.90
2955;DHT22;1487;51.470;6.938;2022-09-09T00:36:12;14.60;99.90
2955;DHT22;1487;51.470;6.938;2022-09-09T00:38:44;14.60;99.90
2955;DHT22;1487;51.470;6.938;2022-09-09T00:41:19;14.50;99.90
2955;DHT22;1487;51.470;6.938;2022-09-09T00:43:56;14.50;99.90
2955;DHT22;1487;51.470;6.938;2022-09-09T00:46:46;14.50;99.90
2955;DHT22;1487;51.470;6.938;2022-09-09T00:49:23;14.50;99.90
2955;DHT22;1487;51.470;6.938;2022-09-09T00:52:02;14.50;99.90
2955;DHT22;1487;51.470;6.938;2022-09-09T00:54:40;14.50;99.90
2955;DHT22;1487;51.470;6.938;2022-09-09T00:57:18;14.60;99.90
2955;DHT22;1487;51.470;6.938;2022-09-09T00:59:52;14.60;99.90
2955;DHT22;1487;51.470;6.938;2022-09-09T01:02:27;14.70;99.90
2955;DHT22;1487;51.470;6.938;2022-09-09T01:04:58;14.70;99.90
2955;DHT22;1487;51.470;6.938;2022-09-09T01:07:27;14.80;99.90
2955;DHT22;1487;51.470;6.938;2022-09-09T01:10:00;14.80;99.90
2955;DHT22;1487;51.470;6.938;2022-09-09T01:12:37;14.80;99.90
2955;DHT22;1487;51.470;6.938;2022-09-09T01:15:10;14.90;99.90
2955;DHT22;1487;51.470;6.938;2022-09-09T01:17:48;14.80;99.90
2955;DHT22;1487;51.470;6.938;2022-09-09T01:20:19;14.80;99.90
2955;DHT22;1487;51.470;6.938;2022-09-09T01:22:57;14.80;99.90
2955;DHT22;1487;51.470;6.938;2022-09-09T01:28:30;14.70;99.90
2955;DHT22;1487;51.470;6.938;2022-09-09T01:30:59;14.70;99.90
2955;DHT22;1487;51.470;6.938;2022-09-09T01:33:26;14.60;99.90
2955;DHT22;1487;51.470;6.938;2022-09-09T01:35:57;14.60;99.90
2955;DHT22;1487;51.470;6.938;2022-09-09T01:38:28;14.50;99.90
2955;DHT22;1487;51.470;6.938;2022-09-09T01:40:55;14.50;99.90
2955;DHT22;1487;51.470;6.938;2022-09-09T01:43:24;14.50;99.90
2955;DHT22;1487;51.470;6.938;2022-09-09T01:45:55;14.50;99.90
2955;DHT22;1487;51.470;6.938;2022-09-09T01:48:24;14.50;99.90
2955;DHT22;1487;51.470;6.938;2022-09-09T01:50:51;14.50;99.90
2955;DHT22;1487;51.470;6.938;2022-09-09T01:53:19;14.40;99.90
2955;DHT22;1487;51.470;6.938;2022-09-09T01:55:56;14.40;99.90
2955;DHT22;1487;51.470;6.938;2022-09-09T01:58:32;14.40;99.90
2955;DHT22;1487;51.470;6.938;2022-09-09T02:01:06;14.50;99.90
2955;DHT22;1487;51.470;6.938;2022-09-09T02:03:35;14.40;99.90
2955;DHT22;1487;51.470;6.938;2022-09-09T02:06:10;14.40;99.90
2955;DHT22;1487;51.470;6.938;2022-09-09T02:08:45;14.40;99.90
2955;DHT22;1487;51.470;6.938;2022-09-09T02:11:14;14.40;99.90
2955;DHT22;1487;51.470;6.938;2022-09-09T02:13:43;14.50;99.90
2955;DHT22;1487;51.470;6.938;2022-09-09T02:16:16;14.50;99.90
2955;DHT22;1487;51.470;6.938;2022-09-09T02:18:50;14.40;99.90
2955;DHT22;1487;51.470;6.938;2022-09-09T02:21:18;14.50;99.90
2955;DHT22;1487;51.470;6.938;2022-09-09T02:23:46;14.50;99.90
2955;DHT22;1487;51.470;6.938;2022-09-09T02:26:15;14.60;99.90
2955;DHT22;1487;51.470;6.938;2022-09-09T02:28:46;14.60;99.90
2955;DHT22;1487;51.470;6.938;2022-09-09T02:31:16;14.60;99.90
2955;DHT22;1487;51.470;6.938;2022-09-09T02:33:47;14.60;99.90
2955;DHT22;1487;51.470;6.938;2022-09-09T02:36:15;14.70;99.90
2955;DHT22;1487;51.470;6.938;2022-09-09T02:38:47;14.70;99.90
2955;DHT22;1487;51.470;6.938;2022-09-09T02:41:20;14.80;99.90
2955;DHT22;1487;51.470;6.938;2022-09-09T02:43:48;14.80;99.90
2955;DHT22;1487;51.470;6.938;2022-09-09T02:46:24;14.90;99.90
2955;DHT22;1487;51.470;6.938;2022-09-09T02:48:59;14.90;99.90
2955;DHT22;1487;51.470;6.938;2022-09-09T02:51:34;14.90;99.90
2955;DHT22;1487;51.470;6.938;2022-09-09T02:54:10;15.00;99.90
2955;DHT22;1487;51.470;6.938;2022-09-09T02:56:41;15.00;99.90
2955;DHT22;1487;51.470;6.938;2022-09-09T02:59:10;14.90;99.90
2955;DHT22;1487;51.470;6.938;2022-09-09T03:01:38;14.90;99.90
2955;DHT22;1487;51.470;6.938;2022-09-09T03:04:05;14.90;99.90
2955;DHT22;1487;51.470;6.938;2022-09-09T03:06:32;14.90;99.90
2955;DHT22;1487;51.470;6.938;2022-09-09T03:09:01;14.90;99.90
2955;DHT22;1487;51.470;6.938;2022-09-09T03:11:28;14.90;99.90
2955;DHT22;1487;51.470;6.938;2022-09-09T03:13:55;14.90;99.90
2955;DHT22;1487;51.470;6.938;2022-09-09T03:16:22;14.80;99.90
2955;DHT22;1487;51.470;6.938;2022-09-09T03:18:51;14.90;99.90
2955;DHT22;1487;51.470;6.938;2022-09-09T03:21:17;14.90;99.90
2955;DHT22;1487;51.470;6.938;2022-09-09T03:23:45;14.80;99.90
2955;DHT22;1487;51.470;6.938;2022-09-09T03:26:12;14.80;99.90
2955;DHT22;1487;51.470;6.938;2022-09-09T03:28:40;14.80;99.90
2955;DHT22;1487;51.470;6.938;2022-09-09T03:31:07;14.80;99.90
2955;DHT22;1487;51.470;6.938;2022-09-09T03:33:36;14.70;99.90
2955;DHT22;1487;51.470;6.938;2022-09-09T03:36:05;14.80;99.90
2955;DHT22;1487;51.470;6.938;2022-09-09T03:38:32;14.80;99.90
2955;DHT22;1487;51.470;6.938;2022-09-09T03:41:00;14.80;99.90
2955;DHT22;1487;51.470;6.938;2022-09-09T03:43:28;14.70;99.90
2955;DHT22;1487;51.470;6.938;2022-09-09T03:45:55;14.80;99.90
2955;DHT22;1487;51.470;6.938;2022-09-09T03:48:24;14.80;99.90
2955;DHT22;1487;51.470;6.938;2022-09-09T03:50:52;14.90;99.90
2955;DHT22;1487;51.470;6.938;2022-09-09T03:53:22;14.90;99.90
2955;DHT22;1487;51.470;6.938;2022-09-09T03:55:52;14.90;99.90
2955;DHT22;1487;51.470;6.938;2022-09-09T03:58:20;14.90;99.90
2955;DHT22;1487;51.470;6.938;2022-09-09T04:00:54;14.90;99.90
2955;DHT22;1487;51.470;6.938;2022-09-09T04:03:21;14.90;99.90
2955;DHT22;1487;51.470;6.938;2022-09-09T04:05:50;14.90;99.90
2955;DHT22;1487;51.470;6.938;2022-09-09T04:08:17;14.80;99.90
2955;DHT22;1487;51.470;6.938;2022-09-09T04:10:46;14.80;99.90
2955;DHT22;1487;51.470;6.938;2022-09-09T04:13:13;14.90;99.90
2955;DHT22;1487;51.470;6.938;2022-09-09T04:15:42;14.90;99.90
2955;DHT22;1487;51.470;6.938;2022-09-09T04:18:09;14.80;99.90
2955;DHT22;1487;51.470;6.938;2022-09-09T04:20:37;14.70;99.90
2955;DHT22;1487;51.470;6.938;2022-09-09T04:23:04;14.70;99.90
2955;DHT22;1487;51.470;6.938;2022-09-09T04:25:31;14.70;99.90
2955;DHT22;1487;51.470;6.938;2022-09-09T04:28:00;14.70;99.90
2955;DHT22;1487;51.470;6.938;2022-09-09T04:30:28;14.60;99.90
2955;DHT22;1487;51.470;6.938;2022-09-09T04:32:56;14.70;99.90
2955;DHT22;1487;51.470;6.938;2022-09-09T04:35:23;14.70;99.90
2955;DHT22;1487;51.470;6.938;2022-09-09T04:37:50;14.70;99.90
2955;DHT22;1487;51.470;6.938;2022-09-09T04:40:16;14.60;99.90
2955;DHT22;1487;51.470;6.938;2022-09-09T04:42:43;14.60;99.90
2955;DHT22;1487;51.470;6.938;2022-09-09T04:45:11;14.60;99.90
2955;DHT22;1487;51.470;6.938;2022-09-09T04:47:39;14.70;99.90
2955;DHT22;1487;51.470;6.938;2022-09-09T04:50:07;14.80;99.90
2955;DHT22;1487;51.470;6.938;2022-09-09T04:52:34;14.80;99.90
2955;DHT22;1487;51.470;6.938;2022-09-09T04:55:01;14.80;99.90
2955;DHT22;1487;51.470;6.938;2022-09-09T04:57:28;14.80;99.90
2955;DHT22;1487;51.470;6.938;2022-09-09T04:59:57;14.80;99.90
2955;DHT22;1487;51.470;6.938;2022-09-09T05:02:26;14.80;99.90
2955;DHT22;1487;51.470;6.938;2022-09-09T05:04:53;15.00;99.90
2955;DHT22;1487;51.470;6.938;2022-09-09T05:07:20;15.00;99.90
2955;DHT22;1487;51.470;6.938;2022-09-09T05:09:47;15.00;99.90
2955;DHT22;1487;51.470;6.938;2022-09-09T05:12:15;15.00;99.90
2955;DHT22;1487;51.470;6.938;2022-09-09T05:14:42;15.10;99.90
2955;DHT22;1487;51.470;6.938;2022-09-09T05:17:10;15.20;99.90
2955;DHT22;1487;51.470;6.938;2022-09-09T05:19:38;15.20;99.90
2955;DHT22;1487;51.470;6.938;2022-09-09T05:22:05;15.20;99.90
2955;DHT22;1487;51.470;6.938;2022-09-09T05:24:32;15.20;99.90
2955;DHT22;1487;51.470;6.938;2022-09-09T05:26:59;15.20;99.90
2955;DHT22;1487;51.470;6.938;2022-09-09T05:29:27;15.20;99.90
2955;DHT22;1487;51.470;6.938;2022-09-09T05:31:54;15.20;99.90
2955;DHT22;1487;51.470;6.938;2022-09-09T05:34:21;15.30;99.90
2955;DHT22;1487;51.470;6.938;2022-09-09T05:36:49;15.30;99.90
2955;DHT22;1487;51.470;6.938;2022-09-09T05:39:17;15.30;99.90
2955;DHT22;1487;51.470;6.938;2022-09-09T05:41:44;15.40;99.90
2955;DHT22;1487;51.470;6.938;2022-09-09T05:44:11;15.50;99.90
2955;DHT22;1487;51.470;6.938;2022-09-09T05:46:39;15.50;99.90
2955;DHT22;1487;51.470;6.938;2022-09-09T05:49:06;15.50;99.90
2955;DHT22;1487;51.470;6.938;2022-09-09T05:51:34;15.50;99.90
2955;DHT22;1487;51.470;6.938;2022-09-09T05:54:02;15.60;99.90
2955;DHT22;1487;51.470;6.938;2022-09-09T05:56:29;15.60;99.90
2955;DHT22;1487;51.470;6.938;2022-09-09T05:58:58;15.70;99.90
2955;DHT22;1487;51.470;6.938;2022-09-09T06:01:27;15.70;99.90
2955;DHT22;1487;51.470;6.938;2022-09-09T06:03:55;15.80;99.90
2955;DHT22;1487;51.470;6.938;2022-09-09T06:06:23;15.80;99.90
2955;DHT22;1487;51.470;6.938;2022-09-09T06:08:52;15.90;99.90
2955;DHT22;1487;51.470;6.938;2022-09-09T06:11:22;15.90;99.90
2955;DHT22;1487;51.470;6.938;2022-09-09T06:13:50;16.00;99.90
2955;DHT22;1487;51.470;6.938;2022-09-09T06:16:20;16.00;99.90
2955;DHT22;1487;51.470;6.938;2022-09-09T06:18:48;16.10;99.90
2955;DHT22;1487;51.470;6.938;2022-09-09T06:21:18;16.20;99.90
2955;DHT22;1487;51.470;6.938;2022-09-09T06:23:46;16.40;99.90
2955;DHT22;1487;51.470;6.938;2022-09-09T06:26:16;16.70;99.90
2955;DHT22;1487;51.470;6.938;2022-09-09T06:28:46;16.90;99.90
2955;DHT22;1487;51.470;6.938;2022-09-09T06:31:15;17.00;99.90
2955;DHT22;1487;51.470;6.938;2022-09-09T06:33:43;16.90;99.90
2955;DHT22;1487;51.470;6.938;2022-09-09T06:36:11;17.00;99.90
2955;DHT22;1487;51.470;6.938;2022-09-09T06:38:39;17.00;99.90
2955;DHT22;1487;51.470;6.938;2022-09-09T06:41:06;17.00;99.90
2955;DHT22;1487;51.470;6.938;2022-09-09T06:43:33;17.00;99.90
2955;DHT22;1487;51.470;6.938;2022-09-09T06:46:04;17.00;99.90
2955;DHT22;1487;51.470;6.938;2022-09-09T06:48:31;17.10;99.90
2955;DHT22;1487;51.470;6.938;2022-09-09T06:51:03;17.10;99.90
2955;DHT22;1487;51.470;6.938;2022-09-09T06:53:30;17.10;99.90
2955;DHT22;1487;51.470;6.938;2022-09-09T06:55:59;17.10;99.90
2955;DHT22;1487;51.470;6.938;2022-09-09T06:58:26;17.10;99.90
2955;DHT22;1487;51.470;6.938;2022-09-09T07:01:02;17.10;99.90
2955;DHT22;1487;51.470;6.938;2022-09-09T07:03:29;17.20;99.90
2955;DHT22;1487;51.470;6.938;2022-09-09T07:05:56;17.50;99.90
2955;DHT22;1487;51.470;6.938;2022-09-09T07:08:23;17.80;99.90
2955;DHT22;1487;51.470;6.938;2022-09-09T07:10:52;17.90;99.90
2955;DHT22;1487;51.470;6.938;2022-09-09T07:13:19;18.00;99.90
2955;DHT22;1487;51.470;6.938;2022-09-09T07:15:49;18.20;99.90
2955;DHT22;1487;51.470;6.938;2022-09-09T07:18:18;19.20;99.90
2955;DHT22;1487;51.470;6.938;2022-09-09T07:20:53;21.00;99.90
2955;DHT22;1487;51.470;6.938;2022-09-09T07:23:20;22.30;99.90
2955;DHT22;1487;51.470;6.938;2022-09-09T07:25:46;23.10;99.90
2955;DHT22;1487;51.470;6.938;2022-09-09T07:28:14;23.60;99.90
2955;DHT22;1487;51.470;6.938;2022-09-09T07:30:41;24.60;99.90
2955;DHT22;1487;51.470;6.938;2022-09-09T07:33:08;25.80;99.90
2955;DHT22;1487;51.470;6.938;2022-09-09T07:35:37;26.80;99.90
2955;DHT22;1487;51.470;6.938;2022-09-09T07:38:04;26.90;99.90
2955;DHT22;1487;51.470;6.938;2022-09-09T07:40:32;26.10;99.90
2955;DHT22;1487;51.470;6.938;2022-09-09T07:42:59;26.40;99.90
2955;DHT22;1487;51.470;6.938;2022-09-09T07:45:27;25.80;99.90
2955;DHT22;1487;51.470;6.938;2022-09-09T07:47:54;24.80;99.90
2955;DHT22;1487;51.470;6.938;2022-09-09T07:50:23;25.40;99.90
2955;DHT22;1487;51.470;6.938;2022-09-09T07:52:51;25.60;99.90
2955;DHT22;1487;51.470;6.938;2022-09-09T07:55:19;25.50;99.90
2955;DHT22;1487;51.470;6.938;2022-09-09T07:57:46;25.40;99.90
2955;DHT22;1487;51.470;6.938;2022-09-09T08:00:14;25.30;99.90
2955;DHT22;1487;51.470;6.938;2022-09-09T08:02:41;24.30;99.90
2955;DHT22;1487;51.470;6.938;2022-09-09T08:05:08;24.50;99.90
2955;DHT22;1487;51.470;6.938;2022-09-09T08:07:35;24.40;99.90
2955;DHT22;1487;51.470;6.938;2022-09-09T08:10:04;24.00;99.90
2955;DHT22;1487;51.470;6.938;2022-09-09T08:12:31;23.20;99.90
2955;DHT22;1487;51.470;6.938;2022-09-09T08:14:58;22.70;99.90
2955;DHT22;1487;51.470;6.938;2022-09-09T08:17:25;22.20;99.90
2955;DHT22;1487;51.470;6.938;2022-09-09T08:19:52;22.40;99.90
2955;DHT22;1487;51.470;6.938;2022-09-09T08:22:19;22.30;99.90
2955;DHT22;1487;51.470;6.938;2022-09-09T08:24:47;23.10;99.90
2955;DHT22;1487;51.470;6.938;2022-09-09T08:27:15;24.00;99.90
2955;DHT22;1487;51.470;6.938;2022-09-09T08:29:42;23.60;99.90
2955;DHT22;1487;51.470;6.938;2022-09-09T08:32:09;23.30;99.90
2955;DHT22;1487;51.470;6.938;2022-09-09T08:34:36;22.90;99.90
2955;DHT22;1487;51.470;6.938;2022-09-09T08:37:03;22.10;99.90
2955;DHT22;1487;51.470;6.938;2022-09-09T08:39:30;21.10;99.90
2955;DHT22;1487;51.470;6.938;2022-09-09T08:42:09;21.20;99.90
2955;DHT22;1487;51.470;6.938;2022-09-09T08:47:40;22.50;99.90
2955;DHT22;1487;51.470;6.938;2022-09-09T08:50:19;23.90;99.90
2955;DHT22;1487;51.470;6.938;2022-09-09T08:52:53;25.10;99.90
2955;DHT22;1487;51.470;6.938;2022-09-09T08:55:25;25.50;99.90
2955;DHT22;1487;51.470;6.938;2022-09-09T08:57:55;25.30;99.90
2955;DHT22;1487;51.470;6.938;2022-09-09T09:00:30;25.90;99.90
2955;DHT22;1487;51.470;6.938;2022-09-09T09:03:08;26.70;97.10
2955;DHT22;1487;51.470;6.938;2022-09-09T09:05:45;27.50;92.00
2955;DHT22;1487;51.470;6.938;2022-09-09T09:08:17;28.10;86.30
2955;DHT22;1487;51.470;6.938;2022-09-09T09:10:49;27.30;86.10
2955;DHT22;1487;51.470;6.938;2022-09-09T09:13:19;27.30;86.10
2955;DHT22;1487;51.470;6.938;2022-09-09T09:15:52;26.60;88.90
2955;DHT22;1487;51.470;6.938;2022-09-09T09:18:20;26.70;90.20
2955;DHT22;1487;51.470;6.938;2022-09-09T09:20:53;26.10;91.40
2955;DHT22;1487;51.470;6.938;2022-09-09T09:23:23;26.20;93.20
2955;DHT22;1487;51.470;6.938;2022-09-09T09:25:53;25.00;93.50
2955;DHT22;1487;51.470;6.938;2022-09-09T09:28:24;24.20;95.20
2955;DHT22;1487;51.470;6.938;2022-09-09T09:30:57;23.40;98.20
2955;DHT22;1487;51.470;6.938;2022-09-09T09:33:28;22.40;99.90
2955;DHT22;1487;51.470;6.938;2022-09-09T09:35:57;22.00;99.90
2955;DHT22;1487;51.470;6.938;2022-09-09T09:38:26;21.80;99.90
2955;DHT22;1487;51.470;6.938;2022-09-09T09:40:54;21.80;99.90
2955;DHT22;1487;51.470;6.938;2022-09-09T09:43:26;21.70;99.90
2955;DHT22;1487;51.470;6.938;2022-09-09T09:45:55;21.40;99.90
2955;DHT22;1487;51.470;6.938;2022-09-09T09:48:23;21.20;99.90
2955;DHT22;1487;51.470;6.938;2022-09-09T09:50:52;21.10;99.90
2955;DHT22;1487;51.470;6.938;2022-09-09T09:53:22;20.90;99.90
2955;DHT22;1487;51.470;6.938;2022-09-09T09:55:54;20.70;99.90
2955;DHT22;1487;51.470;6.938;2022-09-09T09:58:21;20.70;99.90
2955;DHT22;1487;51.470;6.938;2022-09-09T10:00:49;20.60;99.90
2955;DHT22;1487;51.470;6.938;2022-09-09T10:03:26;20.40;99.90
2955;DHT22;1487;51.470;6.938;2022-09-09T10:05:53;20.30;99.90
2955;DHT22;1487;51.470;6.938;2022-09-09T10:08:22;20.20;99.90
2955;DHT22;1487;51.470;6.938;2022-09-09T10:11:06;20.20;99.90
2955;DHT22;1487;51.470;6.938;2022-09-09T10:13:46;20.20;99.90
2955;DHT22;1487;51.470;6.938;2022-09-09T10:16:24;20.50;99.90
2955;DHT22;1487;51.470;6.938;2022-09-09T10:19:01;21.60;99.90
2955;DHT22;1487;51.470;6.938;2022-09-09T10:21:44;23.40;99.90
2955;DHT22;1487;51.470;6.938;2022-09-09T10:27:17;25.30;99.50
2955;DHT22;1487;51.470;6.938;2022-09-09T10:30:04;26.00;93.00
2955;DHT22;1487;51.470;6.938;2022-09-09T10:32:46;26.20;92.30
2955;DHT22;1487;51.470;6.938;2022-09-09T10:35:25;25.70;90.30
2955;DHT22;1487;51.470;6.938;2022-09-09T10:38:15;25.20;91.30
2955;DHT22;1487;51.470;6.938;2022-09-09T10:40:47;24.60;91.50
2955;DHT22;1487;51.470;6.938;2022-09-09T10:43:29;23.50;92.70
2955;DHT22;1487;51.470;6.938;2022-09-09T10:46:06;22.20;99.40
2955;DHT22;1487;51.470;6.938;2022-09-09T10:48:46;21.70;99.90
2955;DHT22;1487;51.470;6.938;2022-09-09T10:51:22;21.40;99.90
2955;DHT22;1487;51.470;6.938;2022-09-09T10:53:57;21.00;99.90
2955;DHT22;1487;51.470;6.938;2022-09-09T10:56:29;20.70;99.90
2955;DHT22;1487;51.470;6.938;2022-09-09T10:58:59;20.60;99.90
2955;DHT22;1487;51.470;6.938;2022-09-09T11:01:31;20.50;99.90
2955;DHT22;1487;51.470;6.938;2022-09-09T11:04:01;20.60;99.90
2955;DHT22;1487;51.470;6.938;2022-09-09T11:06:36;20.80;99.90
2955;DHT22;1487;51.470;6.938;2022-09-09T11:09:10;21.20;99.90
2955;DHT22;1487;51.470;6.938;2022-09-09T11:11:46;21.60;99.90
2955;DHT22;1487;51.470;6.938;2022-09-09T11:14:21;21.60;99.90
2955;DHT22;1487;51.470;6.938;2022-09-09T11:16:52;21.70;99.90
2955;DHT22;1487;51.470;6.938;2022-09-09T11:19:26;21.80;99.90
2955;DHT22;1487;51.470;6.938;2022-09-09T11:21:57;21.80;99.90
2955;DHT22;1487;51.470;6.938;2022-09-09T11:24:29;21.90;99.90
2955;DHT22;1487;51.470;6.938;2022-09-09T11:27:01;22.00;99.90
2955;DHT22;1487;51.470;6.938;2022-09-09T11:29:49;22.40;99.90
2955;DHT22;1487;51.470;6.938;2022-09-09T11:32:33;22.30;99.90
2955;DHT22;1487;51.470;6.938;2022-09-09T11:35:12;22.20;99.90
2955;DHT22;1487;51.470;6.938;2022-09-09T11:37:57;22.30;99.90
2955;DHT22;1487;51.470;6.938;2022-09-09T11:40:26;22.30;99.90
2955;DHT22;1487;51.470;6.938;2022-09-09T11:43:05;22.00;99.90
2955;DHT22;1487;51.470;6.938;2022-09-09T11:45:36;21.80;99.90
2955;DHT22;1487;51.470;6.938;2022-09-09T11:48:04;21.60;99.90
2955;DHT22;1487;51.470;6.938;2022-09-09T11:50:34;21.40;99.90
2955;DHT22;1487;51.470;6.938;2022-09-09T11:53:21;21.10;99.90
2955;DHT22;1487;51.470;6.938;2022-09-09T11:56:00;21.00;99.90
2955;DHT22;1487;51.470;6.938;2022-09-09T11:58:33;20.80;99.90
2955;DHT22;1487;51.470;6.938;2022-09-09T12:01:14;20.40;99.90
2955;DHT22;1487;51.470;6.938;2022-09-09T12:03:43;19.70;99.90
2955;DHT22;1487;51.470;6.938;2022-09-09T12:06:15;19.40;99.90
2955;DHT22;1487;51.470;6.938;2022-09-09T12:08:48;19.10;99.90
2955;DHT22;1487;51.470;6.938;2022-09-09T12:11:28;19.20;99.90
2955;DHT22;1487;51.470;6.938;2022-09-09T12:13:56;19.40;99.90
2955;DHT22;1487;51.470;6.938;2022-09-09T12:16:32;19.90;99.90
2955;DHT22;1487;51.470;6.938;2022-09-09T12:19:14;20.70;99.90
2955;DHT22;1487;51.470;6.938;2022-09-09T12:21:46;21.10;99.90
2955;DHT22;1487;51.470;6.938;2022-09-09T12:24:20;21.20;99.90
2955;DHT22;1487;51.470;6.938;2022-09-09T12:26:54;21.00;99.90
2955;DHT22;1487;51.470;6.938;2022-09-09T12:29:28;20.50;99.90
2955;DHT22;1487;51.470;6.938;2022-09-09T12:32:02;20.20;99.90
2955;DHT22;1487;51.470;6.938;2022-09-09T12:34:36;20.00;99.90
2955;DHT22;1487;51.470;6.938;2022-09-09T12:37:12;19.80;99.90
2955;DHT22;1487;51.470;6.938;2022-09-09T12:39:45;19.80;99.90
2955;DHT22;1487;51.470;6.938;2022-09-09T12:42:19;20.00;99.90
2955;DHT22;1487;51.470;6.938;2022-09-09T12:44:54;20.60;99.90
2955;DHT22;1487;51.470;6.938;2022-09-09T12:47:22;21.20;99.90
2955;DHT22;1487;51.470;6.938;2022-09-09T12:49:51;21.40;99.90
2955;DHT22;1487;51.470;6.938;2022-09-09T12:52:25;21.40;99.90
2955;DHT22;1487;51.470;6.938;2022-09-09T12:54:57;21.10;99.90
2955;DHT22;1487;51.470;6.938;2022-09-09T12:57:26;20.90;99.90
2955;DHT22;1487;51.470;6.938;2022-09-09T13:00:06;20.60;99.90
2955;DHT22;1487;51.470;6.938;2022-09-09T13:02:33;20.30;99.90
2955;DHT22;1487;51.470;6.938;2022-09-09T13:05:09;20.10;99.90
2955;DHT22;1487;51.470;6.938;2022-09-09T13:07:40;19.70;99.90
2955;DHT22;1487;51.470;6.938;2022-09-09T13:10:12;19.30;99.90
2955;DHT22;1487;51.470;6.938;2022-09-09T13:12:40;19.10;99.90
2955;DHT22;1487;51.470;6.938;2022-09-09T13:15:17;18.80;99.90
2955;DHT22;1487;51.470;6.938;2022-09-09T13:17:54;18.30;99.90
2955;DHT22;1487;51.470;6.938;2022-09-09T13:20:22;18.00;99.90
2955;DHT22;1487;51.470;6.938;2022-09-09T13:22:50;17.60;99.90
2955;DHT22;1487;51.470;6.938;2022-09-09T13:25:22;17.40;99.90
2955;DHT22;1487;51.470;6.938;2022-09-09T13:27:56;17.30;99.90
2955;DHT22;1487;51.470;6.938;2022-09-09T13:30:26;17.40;99.90
2955;DHT22;1487;51.470;6.938;2022-09-09T13:33:21;17.40;99.90
2955;DHT22;1487;51.470;6.938;2022-09-09T13:35:51;17.30;99.90
2955;DHT22;1487;51.470;6.938;2022-09-09T13:38:19;17.20;99.90
2955;DHT22;1487;51.470;6.938;2022-09-09T13:40:57;17.30;99.90
2955;DHT22;1487;51.470;6.938;2022-09-09T13:43:26;17.30;99.90
2955;DHT22;1487;51.470;6.938;2022-09-09T13:45:55;17.50;99.90
2955;DHT22;1487;51.470;6.938;2022-09-09T13:48:23;17.60;99.90
2955;DHT22;1487;51.470;6.938;2022-09-09T13:50:56;17.70;99.90
2955;DHT22;1487;51.470;6.938;2022-09-09T13:53:22;17.90;99.90
2955;DHT22;1487;51.470;6.938;2022-09-09T13:55:50;18.00;99.90
2955;DHT22;1487;51.470;6.938;2022-09-09T13:58:19;18.10;99.90
2955;DHT22;1487;51.470;6.938;2022-09-09T14:00:47;18.20;99.90
2955;DHT22;1487;51.470;6.938;2022-09-09T14:03:15;18.40;99.90
2955;DHT22;1487;51.470;6.938;2022-09-09T14:05:42;18.70;99.90
2955;DHT22;1487;51.470;6.938;2022-09-09T14:08:16;19.00;99.90
2955;DHT22;1487;51.470;6.938;2022-09-09T14:10:45;18.90;99.90
2955;DHT22;1487;51.470;6.938;2022-09-09T14:13:12;19.00;99.90
2955;DHT22;1487;51.470;6.938;2022-09-09T14:15:41;19.20;99.90
2955;DHT22;1487;51.470;6.938;2022-09-09T14:18:11;19.40;99.90
2955;DHT22;1487;51.470;6.938;2022-09-09T14:20:38;19.60;99.90
2955;DHT22;1487;51.470;6.938;2022-09-09T14:23:05;19.80;99.90
2955;DHT22;1487;51.470;6.938;2022-09-09T14:25:32;20.20;99.90
2955;DHT22;1487;51.470;6.938;2022-09-09T14:27:59;20.70;99.90
2955;DHT22;1487;51.470;6.938;2022-09-09T14:30:27;21.00;99.90
2955;DHT22;1487;51.470;6.938;2022-09-09T14:32:55;21.00;99.90
2955;DHT22;1487;51.470;6.938;2022-09-09T14:35:22;20.80;99.90
2955;DHT22;1487;51.470;6.938;2022-09-09T14:37:49;20.70;99.90
2955;DHT22;1487;51.470;6.938;2022-09-09T14:40:16;20.60;99.90
2955;DHT22;1487;51.470;6.938;2022-09-09T14:42:43;20.60;99.90
2955;DHT22;1487;51.470;6.938;2022-09-09T14:45:11;20.60;99.90
2955;DHT22;1487;51.470;6.938;2022-09-09T14:47:38;20.40;99.90
2955;DHT22;1487;51.470;6.938;2022-09-09T14:50:07;20.20;99.90
2955;DHT22;1487;51.470;6.938;2022-09-09T14:52:34;20.00;99.90
2955;DHT22;1487;51.470;6.938;2022-09-09T14:55:01;19.60;99.90
2955;DHT22;1487;51.470;6.938;2022-09-09T14:57:28;19.40;99.90
2955;DHT22;1487;51.470;6.938;2022-09-09T14:59:55;18.80;99.90
2955;DHT22;1487;51.470;6.938;2022-09-09T15:02:22;18.20;99.90
2955;DHT22;1487;51.470;6.938;2022-09-09T15:04:49;17.70;99.90
2955;DHT22;1487;51.470;6.938;2022-09-09T15:07:18;17.20;99.90
2955;DHT22;1487;51.470;6.938;2022-09-09T15:09:45;16.80;99.90
2955;DHT22;1487;51.470;6.938;2022-09-09T15:12:13;16.50;99.90
2955;DHT22;1487;51.470;6.938;2022-09-09T15:14:41;16.20;99.90
2955;DHT22;1487;51.470;6.938;2022-09-09T15:17:08;16.00;99.90
2955;DHT22;1487;51.470;6.938;2022-09-09T15:19:34;15.90;99.90
2955;DHT22;1487;51.470;6.938;2022-09-09T15:22:02;15.90;99.90
2955;DHT22;1487;51.470;6.938;2022-09-09T15:24:32;15.90;99.90
2955;DHT22;1487;51.470;6.938;2022-09-09T15:26:59;15.90;99.90
2955;DHT22;1487;51.470;6.938;2022-09-09T15:29:26;15.90;99.90
2955;DHT22;1487;51.470;6.938;2022-09-09T15:31:53;16.00;99.90
2955;DHT22;1487;51.470;6.938;2022-09-09T15:34:21;16.00;99.90
2955;DHT22;1487;51.470;6.938;2022-09-09T15:36:48;16.00;99.90
2955;DHT22;1487;51.470;6.938;2022-09-09T15:39:16;15.90;99.90
2955;DHT22;1487;51.470;6.938;2022-09-09T15:41:46;15.90;99.90
2955;DHT22;1487;51.470;6.938;2022-09-09T15:44:14;15.90;99.90
2955;DHT22;1487;51.470;6.938;2022-09-09T15:46:42;15.90;99.90
2955;DHT22;1487;51.470;6.938;2022-09-09T15:49:11;15.90;99.90
2955;DHT22;1487;51.470;6.938;2022-09-09T15:51:39;15.90;99.90
2955;DHT22;1487;51.470;6.938;2022-09-09T15:54:08;15.90;99.90
2955;DHT22;1487;51.470;6.938;2022-09-09T15:56:35;15.90;99.90
2955;DHT22;1487;51.470;6.938;2022-09-09T15:59:03;15.90;99.90
2955;DHT22;1487;51.470;6.938;2022-09-09T16:01:31;15.80;99.90
2955;DHT22;1487;51.470;6.938;2022-09-09T16:03:59;15.90;99.90
2955;DHT22;1487;51.470;6.938;2022-09-09T16:06:28;16.00;99.90
2955;DHT22;1487;51.470;6.938;2022-09-09T16:08:57;16.00;99.90
2955;DHT22;1487;51.470;6.938;2022-09-09T16:11:26;16.20;99.90
2955;DHT22;1487;51.470;6.938;2022-09-09T16:13:54;16.30;99.90
2955;DHT22;1487;51.470;6.938;2022-09-09T16:16:25;16.40;99.90
2955;DHT22;1487;51.470;6.938;2022-09-09T16:18:53;16.50;99.90
2955;DHT22;1487;51.470;6.938;2022-09-09T16:21:22;16.60;99.90
2955;DHT22;1487;51.470;6.938;2022-09-09T16:23:50;16.70;99.90
2955;DHT22;1487;51.470;6.938;2022-09-09T16:26:17;16.70;99.90
2955;DHT22;1487;51.470;6.938;2022-09-09T16:28:45;16.70;99.90
2955;DHT22;1487;51.470;6.938;2022-09-09T16:31:15;16.70;99.90